Time;durP1;ratioP1;P1;durP2;ratioP2;P2;SDS_P1;SDS_P2;PMS_P1;PMS_P2;Temp;Humidity;BMP_temperature;BMP_pressure;BME280_temperature;BME280_humidity;BME280_pressure;Samples;Min_cycle;Max_cycle;Signal;HPM_P1;HPM_P2
2023/06/02 00:00:14;;;;;;;5.90;4.65;;;12.90;1.00;13.60;94133.00;;;;7417282;19;20216;-82
2023/06/02 00:02:51;;;;;;;8.25;4.55;;;12.90;1.00;13.50;94170.00;;;;7415788;19;20121;-82
2023/06/02 00:05:19;;;;;;;6.88;4.88;;;12.90;1.00;13.40;94161.00;;;;7412109;19;20147;-81
2023/06/02 00:07:55;;;;;;;8.73;5.00;;;12.80;1.00;13.40;94167.00;;;;7412262;19;20137;-81
2023/06/02 00:10:22;;;;;;;6.22;5.05;;;12.70;1.00;13.00;94098.00;;;;7415099;19;20152;-80
2023/06/02 00:12:56;;;;;;;6.68;4.75;;;12.70;1.00;13.20;94136.00;;;;7418237;19;20121;-80
2023/06/02 00:15:40;;;;;;;8.43;4.97;;;12.60;1.00;13.30;94132.00;;;;7414356;19;20799;-80
2023/06/02 00:18:27;;;;;;;7.28;4.47;;;12.60;1.00;13.20;94156.00;;;;7418571;19;20204;-80
2023/06/02 00:20:56;;;;;;;5.85;4.70;;;12.50;1.00;13.20;94126.00;;;;7420032;19;20595;-81
2023/06/02 00:23:31;;;;;;;10.68;4.80;;;12.50;1.00;13.10;94132.00;;;;7423193;19;20512;-80
2023/06/02 00:25:59;;;;;;;6.78;4.53;;;12.50;1.00;13.10;94128.00;;;;7425946;19;20121;-81
2023/06/02 00:28:33;;;;;;;7.43;4.63;;;12.50;1.00;13.10;94159.00;;;;7425613;19;20468;-81
2023/06/02 00:31:07;;;;;;;5.50;4.38;;;12.50;1.00;13.10;94133.00;;;;7424071;19;20182;-80
2023/06/02 00:33:41;;;;;;;9.45;4.68;;;12.40;1.00;13.10;94159.00;;;;7416802;19;20125;-81
2023/06/02 00:36:08;;;;;;;7.68;4.60;;;12.50;1.00;13.00;94163.00;;;;7411689;19;20145;-80
2023/06/02 00:38:42;;;;;;;7.07;4.88;;;12.40;1.00;13.20;94130.00;;;;7411689;19;20169;-80
2023/06/02 00:41:09;;;;;;;7.57;5.00;;;12.40;1.00;13.10;94168.00;;;;7424590;19;20161;-80
2023/06/02 00:43:37;;;;;;;8.15;5.30;;;12.40;1.00;13.00;94160.00;;;;7422988;19;20158;-82
2023/06/02 00:46:11;;;;;;;7.78;5.43;;;12.30;1.00;13.00;94163.00;;;;7425043;19;20520;-82
2023/06/02 00:48:39;;;;;;;9.65;5.00;;;12.30;1.00;12.80;94154.00;;;;7421638;19;20137;-81
2023/06/02 00:51:13;;;;;;;10.63;5.03;;;12.30;1.00;12.70;94153.00;;;;7423645;19;20144;-80
2023/06/02 00:53:41;;;;;;;10.02;5.25;;;12.30;1.00;12.70;94136.00;;;;7423188;19;20541;-79
2023/06/02 00:56:17;;;;;;;11.35;4.82;;;12.10;1.00;12.60;94070.00;;;;7424120;19;20134;-81
2023/06/02 00:58:45;;;;;;;8.38;4.90;;;12.10;1.00;12.80;94153.00;;;;7420324;19;20155;-80
2023/06/02 01:01:18;;;;;;;6.97;5.10;;;12.00;1.00;12.60;94160.00;;;;7417047;19;20148;-81
2023/06/02 01:03:52;;;;;;;11.02;5.68;;;12.00;1.00;12.60;94162.00;;;;7411632;19;20599;-81
2023/06/02 01:06:34;;;;;;;10.10;5.03;;;11.90;1.00;12.60;94112.00;;;;7409466;19;20137;-80
2023/06/02 01:09:07;;;;;;;6.68;4.80;;;11.90;1.00;12.70;94122.00;;;;7412522;19;20140;-81
2023/06/02 01:11:41;;;;;;;8.57;4.85;;;11.90;1.00;12.50;94118.00;;;;7402755;19;20151;-78
2023/06/02 01:14:15;;;;;;;6.82;5.00;;;11.80;1.00;12.50;94120.00;;;;7404676;19;20165;-77
2023/06/02 01:17:02;;;;;;;6.72;4.72;;;11.70;1.00;12.40;94107.00;;;;7407247;19;20169;-81
2023/06/02 01:19:38;;;;;;;6.40;5.05;;;11.60;1.00;12.30;94105.00;;;;7413586;19;20117;-81
2023/06/02 01:22:23;;;;;;;7.88;4.93;;;11.50;1.00;12.10;94132.00;;;;7407406;19;20603;-80
2023/06/02 01:24:59;;;;;;;8.48;4.80;;;11.50;1.00;12.30;94149.00;;;;7406376;19;20177;-81
2023/06/02 01:27:33;;;;;;;6.75;4.90;;;11.40;1.00;12.30;94104.00;;;;7412519;19;20799;-80
2023/06/02 01:30:07;;;;;;;18.63;5.00;;;11.50;1.00;12.30;94149.00;;;;7411680;19;20212;-80
2023/06/02 01:33:00;;;;;;;6.82;5.53;;;11.50;1.00;12.30;94124.00;;;;7407384;19;20144;-81
2023/06/02 01:35:47;;;;;;;8.82;4.85;;;11.40;1.00;12.20;94153.00;;;;7413327;19;20141;-79
2023/06/02 01:38:26;;;;;;;9.30;4.88;;;11.50;1.00;12.20;94125.00;;;;7405728;19;20193;-78
2023/06/02 01:41:03;;;;;;;9.23;5.03;;;11.50;1.00;12.20;94148.00;;;;7406121;19;20131;-82
2023/06/02 01:43:37;;;;;;;10.07;5.70;;;11.50;1.00;12.10;94080.00;;;;7405885;19;20152;-81
2023/06/02 01:46:12;;;;;;;8.00;5.32;;;11.50;1.00;12.00;94142.00;;;;7406337;19;20125;-80
2023/06/02 01:48:40;;;;;;;6.43;5.13;;;11.40;1.00;12.00;94100.00;;;;7406518;19;20142;-80
2023/06/02 01:51:14;;;;;;;10.93;5.15;;;11.40;1.00;12.00;94137.00;;;;7406855;19;20161;-81
2023/06/02 01:53:48;;;;;;;7.50;4.97;;;11.40;1.00;12.00;94094.00;;;;7408900;19;20141;-80
2023/06/02 01:56:22;;;;;;;8.40;5.15;;;11.40;1.00;11.80;94136.00;;;;7410750;19;20129;-81
2023/06/02 01:58:57;;;;;;;9.50;4.93;;;11.30;1.00;11.90;94100.00;;;;7408780;19;20520;-81
2023/06/02 02:01:27;;;;;;;10.13;5.18;;;11.30;1.00;11.80;94132.00;;;;7412266;19;20188;-82
2023/06/02 02:04:01;;;;;;;7.65;5.05;;;11.30;1.00;11.70;94113.00;;;;7413431;19;20165;-81
2023/06/02 02:06:34;;;;;;;7.97;4.93;;;11.20;1.00;11.60;94101.00;;;;7416531;19;20163;-81
2023/06/02 02:09:07;;;;;;;6.75;4.97;;;11.10;1.00;11.50;94143.00;;;;7417559;19;20137;-82
2023/06/02 02:11:42;;;;;;;9.82;4.78;;;11.00;1.00;11.40;94122.00;;;;7414374;19;20215;-82
2023/06/02 02:14:16;;;;;;;6.27;4.70;;;10.90;1.00;11.50;94143.00;;;;7417328;19;20157;-81
2023/06/02 02:16:45;;;;;;;9.32;5.35;;;10.90;1.00;11.40;94082.00;;;;7420049;19;20172;-81
2023/06/02 02:19:31;;;;;;;6.63;4.60;;;10.80;1.00;11.30;94126.00;;;;7418934;19;20140;-81
2023/06/02 02:21:58;;;;;;;7.45;4.80;;;10.80;1.00;11.30;94129.00;;;;7418965;19;20156;-82
2023/06/02 02:24:32;;;;;;;7.30;4.97;;;10.80;1.00;11.20;94124.00;;;;7420483;19;20124;-81
2023/06/02 02:27:08;;;;;;;8.27;5.00;;;10.70;1.00;11.20;94092.00;;;;7412600;19;20212;-81
2023/06/02 02:29:38;;;;;;;6.50;4.67;;;10.70;1.00;11.30;94084.00;;;;7420663;19;20118;-81
2023/06/02 02:32:12;;;;;;;6.20;4.27;;;10.70;1.00;11.30;94099.00;;;;7421335;19;20141;-81
2023/06/02 02:34:48;;;;;;;8.32;5.18;;;10.80;1.00;11.40;94112.00;;;;7420992;19;20140;-81
2023/06/02 02:37:22;;;;;;;7.47;4.97;;;10.80;1.00;11.40;94083.00;;;;7413931;19;20148;-80
2023/06/02 02:40:13;;;;;;;7.30;4.43;;;10.80;1.00;11.30;94066.00;;;;7420594;19;20145;-82
2023/06/02 02:42:40;;;;;;;5.80;4.40;;;10.70;1.00;11.30;94099.00;;;;7417656;19;20142;-82
2023/06/02 02:45:13;;;;;;;6.70;4.67;;;10.70;1.00;11.30;94135.00;;;;7416527;19;20128;-82
2023/06/02 02:47:40;;;;;;;6.78;5.10;;;10.70;1.00;11.20;94131.00;;;;7415039;19;20660;-81
2023/06/02 02:50:14;;;;;;;10.37;5.00;;;10.60;1.00;11.10;94072.00;;;;7412102;19;20161;-82
2023/06/02 02:52:41;;;;;;;9.50;5.03;;;10.60;1.00;11.10;94129.00;;;;7417858;19;20148;-81
2023/06/02 02:55:15;;;;;;;7.15;4.70;;;10.60;1.00;11.00;94119.00;;;;7422291;19;20141;-82
2023/06/02 02:57:43;;;;;;;9.30;5.18;;;10.60;1.00;11.00;94129.00;;;;7418969;19;20125;-80
2023/06/02 03:00:17;;;;;;;9.90;4.40;;;10.50;1.00;10.90;94070.00;;;;7415674;19;20148;-81
2023/06/02 03:02:52;;;;;;;11.13;5.30;;;10.50;1.00;10.90;94133.00;;;;7416289;19;20136;-79
2023/06/02 03:05:27;;;;;;;8.93;5.70;;;10.40;1.00;10.90;94127.00;;;;7411898;19;20168;-81
2023/06/02 03:07:55;;;;;;;7.63;4.83;;;10.40;1.00;10.90;94080.00;;;;7409846;19;20133;-80
2023/06/02 03:10:31;;;;;;;12.83;5.13;;;10.40;1.00;10.80;94100.00;;;;7409802;19;20112;-81
2023/06/02 03:13:05;;;;;;;7.50;5.30;;;10.30;1.00;10.70;94136.00;;;;7409236;19;20137;-80
2023/06/02 03:15:39;;;;;;;7.03;5.33;;;10.30;1.00;10.70;94118.00;;;;7419704;19;20125;-82
2023/06/02 03:18:20;;;;;;;8.53;5.30;;;10.20;1.00;10.70;94111.00;;;;7408478;19;20777;-81
2023/06/02 03:20:48;;;;;;;7.90;5.07;;;10.20;1.00;10.70;94130.00;;;;7409534;19;20129;-81
2023/06/02 03:23:22;;;;;;;8.80;5.63;;;10.20;1.00;10.60;94130.00;;;;7411902;19;20132;-82
2023/06/02 03:25:56;;;;;;;8.60;5.83;;;10.10;1.00;10.50;94103.00;;;;7413188;19;20145;-80
2023/06/02 03:28:23;;;;;;;8.53;5.43;;;10.10;5.50;10.40;94131.00;;;;7410608;19;20168;-81
2023/06/02 03:30:57;;;;;;;7.93;5.83;;;10.00;15.70;10.40;94094.00;;;;7408843;19;20132;-81
2023/06/02 03:33:31;;;;;;;14.13;6.30;;;10.00;17.40;10.40;94132.00;;;;7404774;19;20132;-81
2023/06/02 03:36:05;;;;;;;10.40;5.97;;;9.90;59.90;10.30;94133.00;;;;7409019;19;20137;-80
2023/06/02 03:38:40;;;;;;;14.17;6.20;;;9.90;65.10;10.20;94135.00;;;;7409761;19;20144;-81
2023/06/02 03:41:14;;;;;;;8.27;5.63;;;9.80;99.90;10.10;94133.00;;;;7405722;19;20575;-81
2023/06/02 03:43:41;;;;;;;9.03;5.33;;;9.80;99.90;10.10;94107.00;;;;7403545;19;20241;-81
2023/06/02 03:46:15;;;;;;;10.43;6.63;;;9.70;99.90;10.00;94119.00;;;;7402347;19;20116;-80
2023/06/02 03:48:49;;;;;;;10.10;6.47;;;9.70;99.90;9.90;94122.00;;;;7403596;19;20487;-81
2023/06/02 03:51:16;;;;;;;10.17;6.63;;;9.60;99.90;9.90;94128.00;;;;7401366;19;20657;-79
2023/06/02 03:53:50;;;;;;;9.47;6.50;;;9.60;99.90;9.80;94116.00;;;;7400927;19;20207;-80
2023/06/02 03:56:25;;;;;;;12.77;6.53;;;9.50;99.90;9.80;94121.00;;;;7402157;19;20121;-80
2023/06/02 03:58:58;;;;;;;14.43;6.37;;;9.50;99.90;9.80;94104.00;;;;7400362;19;20661;-81
2023/06/02 04:01:26;;;;;;;11.17;6.60;;;9.50;99.90;9.70;94129.00;;;;7396019;19;20640;-80
2023/06/02 04:03:59;;;;;;;9.53;6.13;;;9.40;99.90;9.70;94137.00;;;;7398789;19;20136;-80
2023/06/02 04:06:33;;;;;;;8.37;6.20;;;9.30;99.90;9.80;94135.00;;;;7402041;19;20475;-80
2023/06/02 04:09:12;;;;;;;12.30;6.57;;;9.30;99.90;9.80;94131.00;;;;7394106;19;20528;-78
2023/06/02 04:11:40;;;;;;;12.70;7.40;;;9.30;99.90;9.80;94080.00;;;;7398340;19;20153;-80
2023/06/02 04:14:13;;;;;;;10.57;6.70;;;9.30;99.90;9.80;94105.00;;;;7399958;19;20579;-80
2023/06/02 04:16:47;;;;;;;15.70;8.10;;;9.40;99.90;9.90;94109.00;;;;7399145;19;20452;-81
2023/06/02 04:19:27;;;;;;;10.13;6.47;;;9.40;99.90;9.90;94153.00;;;;7400090;19;20591;-81
2023/06/02 04:22:01;;;;;;;11.53;6.57;;;9.40;99.90;10.10;94122.00;;;;7400761;19;20125;-81
2023/06/02 04:24:29;;;;;;;10.03;6.50;;;9.50;99.90;10.10;94141.00;;;;7400437;19;20153;-80
2023/06/02 04:27:02;;;;;;;9.80;6.40;;;9.50;99.90;10.20;94142.00;;;;7394753;19;20133;-80
2023/06/02 04:29:40;;;;;;;12.67;6.17;;;9.50;99.90;10.30;94123.00;;;;7398449;19;20163;-80
2023/06/02 04:32:15;;;;;;;10.70;6.23;;;9.50;99.90;10.30;94139.00;;;;7399317;19;20148;-82
2023/06/02 04:34:50;;;;;;;10.13;6.87;;;9.50;99.90;10.30;94118.00;;;;7399072;19;20121;-80
2023/06/02 04:37:25;;;;;;;13.10;6.93;;;9.50;99.90;10.50;94129.00;;;;7401089;19;20478;-80
2023/06/02 04:39:52;;;;;;;8.37;6.43;;;9.50;99.90;10.50;94141.00;;;;7399786;19;20125;-80
2023/06/02 04:42:26;;;;;;;13.07;7.70;;;9.60;99.90;10.70;94115.00;;;;7399588;19;20620;-81
2023/06/02 04:44:53;;;;;;;13.87;6.87;;;9.70;99.90;10.70;94132.00;;;;7404882;19;20568;-81
2023/06/02 04:47:27;;;;;;;10.93;6.70;;;9.70;99.90;10.80;94149.00;;;;7403654;19;20121;-82
2023/06/02 04:49:55;;;;;;;10.40;7.07;;;9.90;99.90;10.80;94107.00;;;;7403235;19;20158;-81
2023/06/02 04:52:22;;;;;;;11.53;7.00;;;9.90;99.90;10.90;94133.00;;;;7409123;19;20161;-81
2023/06/02 04:54:58;;;;;;;10.37;6.87;;;10.00;99.90;11.00;94111.00;;;;7409022;19;20144;-82
2023/06/02 04:57:31;;;;;;;10.70;6.90;;;10.00;99.90;11.10;94088.00;;;;7413719;19;20117;-80
2023/06/02 04:59:59;;;;;;;10.33;6.87;;;10.10;99.90;11.30;94136.00;;;;7411718;19;20191;-81
2023/06/02 05:02:34;;;;;;;11.37;7.10;;;10.10;99.90;11.30;94142.00;;;;7413740;19;20173;-81
2023/06/02 05:05:02;;;;;;;11.37;7.10;;;10.20;99.90;11.30;94136.00;;;;7406053;19;20614;-81
2023/06/02 05:07:37;;;;;;;12.70;7.57;;;10.30;99.90;11.40;94119.00;;;;7406261;19;20117;-81
2023/06/02 05:10:10;;;;;;;15.20;8.23;;;10.30;99.90;11.40;94118.00;;;;7404755;19;20137;-81
2023/06/02 05:12:47;;;;;;;15.07;7.85;;;10.40;99.90;11.10;94138.00;;;;7412768;19;20144;-81
2023/06/02 05:15:16;;;;;;;12.50;6.95;;;10.50;99.90;11.50;94123.00;;;;7414503;19;20157;-82
2023/06/02 05:17:59;;;;;;;9.40;6.90;;;10.60;99.90;11.60;94132.00;;;;7419870;19;20160;-82
2023/06/02 05:20:33;;;;;;;9.55;7.32;;;10.60;99.90;11.60;94153.00;;;;7416025;19;20549;-82
2023/06/02 05:23:08;;;;;;;11.00;7.40;;;10.70;99.90;11.70;94142.00;;;;7429120;19;20113;-82
2023/06/02 05:28:23;;;;;;;10.80;6.97;;;10.80;99.90;11.50;94035.00;;;;7428527;19;20230;-82
2023/06/02 05:31:02;;;;;;;9.77;7.25;;;10.90;99.90;12.20;93986.00;;;;7432229;19;20147;-80
2023/06/02 05:33:36;;;;;;;9.50;6.97;;;11.00;99.90;12.30;94129.00;;;;7421249;19;20147;-81
2023/06/02 05:36:11;;;;;;;9.27;6.63;;;11.10;99.90;11.90;93985.00;;;;7428518;19;20166;-81
2023/06/02 05:38:47;;;;;;;9.18;6.68;;;11.20;99.90;12.50;94146.00;;;;7425824;19;20145;-81
2023/06/02 05:41:21;;;;;;;8.55;6.88;;;11.30;99.90;12.60;94135.00;;;;7406010;19;20681;-81
2023/06/02 05:43:49;;;;;;;13.38;6.80;;;11.40;99.90;12.80;94141.00;;;;7411793;19;20176;-81
2023/06/02 05:46:43;;;;;;;12.15;6.43;;;11.60;99.90;13.10;94133.00;;;;7401770;19;20149;-81
2023/06/02 05:49:19;;;;;;;12.80;7.18;;;11.80;99.90;13.50;94154.00;;;;7413685;19;20137;-81
2023/06/02 05:51:46;;;;;;;12.35;7.18;;;12.00;99.90;13.50;94156.00;;;;7417424;19;20121;-81
2023/06/02 05:54:20;;;;;;;10.95;7.15;;;12.10;99.90;13.80;94108.00;;;;7400336;19;20474;-83
2023/06/02 05:56:54;;;;;;;10.45;6.95;;;12.50;99.90;14.20;94154.00;;;;7389556;19;20159;-84
2023/06/02 05:59:28;;;;;;;7.68;6.45;;;12.90;99.90;14.40;94150.00;;;;7388740;19;20150;-83
2023/06/02 06:01:56;;;;;;;13.00;6.95;;;13.20;44.20;14.70;94104.00;;;;7387184;19;20668;-86
2023/06/02 06:04:30;;;;;;;10.13;6.68;;;13.60;26.80;14.80;94144.00;;;;7385880;19;20148;-84
2023/06/02 06:07:05;;;;;;;8.45;6.97;;;13.90;1.00;15.10;94139.00;;;;7393323;19;20167;-82
2023/06/02 06:09:40;;;;;;;9.10;6.57;;;14.10;1.00;15.30;94138.00;;;;7387250;19;20133;-82
2023/06/02 06:12:08;;;;;;;9.85;7.30;;;14.20;1.00;15.20;94154.00;;;;7388314;19;20125;-80
2023/06/02 06:14:41;;;;;;;14.48;7.43;;;14.10;1.00;15.60;94146.00;;;;7386357;19;20129;-83
2023/06/02 06:17:14;;;;;;;12.65;7.35;;;14.10;1.00;15.30;94141.00;;;;7383324;19;20559;-81
2023/06/02 06:19:42;;;;;;;8.77;6.85;;;14.10;1.00;15.90;94117.00;;;;7382753;19;20144;-78
2023/06/02 06:22:17;;;;;;;11.40;7.50;;;14.20;1.00;16.20;94145.00;;;;7385728;19;20660;-77
2023/06/02 06:25:01;;;;;;;10.75;6.97;;;14.10;1.00;16.50;94122.00;;;;7378444;19;20150;-79
2023/06/02 06:27:41;;;;;;;9.70;6.35;;;14.20;1.00;16.70;94110.00;;;;7376262;19;20176;-77
2023/06/02 06:30:10;;;;;;;9.80;6.70;;;14.40;1.00;17.20;94121.00;;;;7379572;19;20125;-79
2023/06/02 06:32:45;;;;;;;8.52;7.35;;;14.60;1.00;18.00;94115.00;;;;7376693;19;20169;-79
2023/06/02 06:35:12;;;;;;;12.10;6.93;;;14.70;1.00;18.10;94150.00;;;;7380790;19;20149;-81
2023/06/02 06:37:48;;;;;;;9.90;6.68;;;14.80;1.00;17.90;94123.00;;;;7382586;19;20625;-82
2023/06/02 06:40:15;;;;;;;9.98;6.85;;;15.00;1.00;18.60;94123.00;;;;7382592;19;20129;-83
2023/06/02 06:42:43;;;;;;;11.63;6.75;;;15.20;1.00;17.70;94148.00;;;;7386029;19;20215;-83
2023/06/02 06:45:17;;;;;;;10.38;7.55;;;15.30;1.00;18.60;94155.00;;;;7382525;19;20228;-83
2023/06/02 06:47:51;;;;;;;9.90;7.03;;;15.50;1.00;18.80;94144.00;;;;7380386;19;20155;-80
2023/06/02 06:50:25;;;;;;;11.65;6.68;;;15.60;1.00;18.80;94153.00;;;;7379158;19;20147;-79
2023/06/02 06:52:52;;;;;;;8.68;6.88;;;15.70;1.00;19.00;94159.00;;;;7377862;19;20573;-78
2023/06/02 06:55:25;;;;;;;11.65;7.00;;;15.80;1.00;19.10;94159.00;;;;7380076;19;20125;-79
2023/06/02 06:57:53;;;;;;;10.77;7.20;;;15.90;1.00;19.40;94143.00;;;;7379768;19;20149;-79
2023/06/02 07:00:26;;;;;;;9.38;6.32;;;16.00;1.00;19.30;94149.00;;;;7382890;19;20173;-80
2023/06/02 07:02:54;;;;;;;8.30;6.72;;;16.00;1.00;19.30;94134.00;;;;7384436;19;20125;-81
2023/06/02 07:05:30;;;;;;;8.98;7.07;;;16.00;1.00;18.80;94155.00;;;;7382564;19;20129;-79
2023/06/02 07:08:04;;;;;;;10.43;6.45;;;16.10;1.00;18.20;94173.00;;;;7382720;19;20153;-80
2023/06/02 07:10:38;;;;;;;12.43;7.40;;;16.10;1.00;17.90;94184.00;;;;7382953;19;20135;-81
2023/06/02 07:13:12;;;;;;;7.13;6.43;;;15.90;1.00;17.80;94157.00;;;;7382797;19;20457;-82
2023/06/02 07:15:39;;;;;;;13.82;8.45;;;15.90;1.00;17.70;94157.00;;;;7382836;19;20317;-77
2023/06/02 07:18:07;;;;;;;10.65;7.53;;;15.80;1.00;17.30;94134.00;;;;7380664;19;20204;-79
2023/06/02 07:20:40;;;;;;;11.70;7.55;;;15.70;1.00;17.70;94154.00;;;;7386859;19;20522;-81
2023/06/02 07:23:08;;;;;;;8.93;7.38;;;15.70;1.00;17.90;94178.00;;;;7386657;19;20148;-80
2023/06/02 07:25:43;;;;;;;11.65;7.80;;;15.70;1.00;18.20;94176.00;;;;7386696;19;20149;-82
2023/06/02 07:28:11;;;;;;;12.27;7.60;;;15.70;1.00;18.30;94142.00;;;;7378200;19;20183;-82
2023/06/02 07:31:05;;;;;;;9.23;7.53;;;15.90;1.00;18.40;94170.00;;;;7380981;19;20133;-82
2023/06/02 07:33:38;;;;;;;9.75;7.40;;;16.10;1.00;17.80;94156.00;;;;7383795;19;20539;-79
2023/06/02 07:36:14;;;;;;;8.38;7.32;;;16.10;1.00;17.70;94146.00;;;;7385616;19;20124;-82
2023/06/02 07:38:51;;;;;;;9.40;7.47;;;16.20;1.00;18.70;94186.00;;;;7381099;19;20612;-81
2023/06/02 07:41:25;;;;;;;12.20;7.38;;;16.20;1.00;18.90;94191.00;;;;7375100;19;20168;-81
2023/06/02 07:43:52;;;;;;;10.02;6.63;;;16.40;1.00;18.70;94164.00;;;;7374782;19;20167;-79
2023/06/02 07:46:26;;;;;;;9.73;6.95;;;16.60;1.00;17.80;94171.00;;;;7380845;19;20148;-82
2023/06/02 07:48:55;;;;;;;10.07;7.22;;;16.70;1.00;18.30;94155.00;;;;7381622;19;20721;-80
2023/06/02 07:51:33;;;;;;;9.55;7.20;;;16.90;1.00;18.60;94192.00;;;;7380595;19;20128;-80
2023/06/02 07:54:08;;;;;;;12.02;7.30;;;17.00;1.00;18.50;94203.00;;;;7384273;19;20157;-83
2023/06/02 07:56:41;;;;;;;10.60;7.28;;;17.10;1.00;18.40;94146.00;;;;7382832;19;20137;-80
2023/06/02 07:59:18;;;;;;;8.80;7.70;;;17.10;1.00;18.20;94188.00;;;;7381499;19;20132;-81
2023/06/02 08:01:51;;;;;;;9.82;7.28;;;17.10;1.00;18.70;94183.00;;;;7375321;19;20162;-78
2023/06/02 08:04:25;;;;;;;9.52;6.78;;;17.10;1.00;18.50;94160.00;;;;7376781;19;20128;-78
2023/06/02 08:06:58;;;;;;;11.20;7.10;;;17.10;1.00;19.00;94152.00;;;;7379281;19;20487;-80
2023/06/02 08:09:26;;;;;;;9.85;7.15;;;17.40;1.00;18.90;94180.00;;;;7376892;19;20150;-77
2023/06/02 08:12:00;;;;;;;10.30;7.82;;;17.60;1.00;19.20;94190.00;;;;7377839;19;20637;-77
2023/06/02 08:14:35;;;;;;;10.02;8.05;;;17.80;1.00;19.40;94172.00;;;;7381442;19;20121;-77
2023/06/02 08:17:10;;;;;;;11.75;7.15;;;17.80;1.00;19.40;94181.00;;;;7377411;19;20128;-78
2023/06/02 08:19:43;;;;;;;11.88;7.50;;;17.90;1.00;19.40;94187.00;;;;7372949;19;20474;-78
2023/06/02 08:22:18;;;;;;;9.27;7.13;;;18.10;1.00;19.60;94172.00;;;;7373116;19;20214;-77
2023/06/02 08:24:55;;;;;;;10.30;7.47;;;18.20;1.00;20.10;94159.00;;;;7377842;19;20128;-77
2023/06/02 08:27:30;;;;;;;8.70;7.18;;;18.10;1.00;19.40;94159.00;;;;7376122;19;21274;-78
2023/06/02 08:30:08;;;;;;;9.40;7.13;;;18.10;1.00;19.50;94177.00;;;;7376646;19;20584;-79
2023/06/02 08:32:36;;;;;;;7.80;6.65;;;18.10;1.00;19.60;94144.00;;;;7386738;19;20204;-78
2023/06/02 08:35:09;;;;;;;13.02;7.22;;;18.20;1.00;20.00;94160.00;;;;7383601;19;20129;-78
2023/06/02 08:37:38;;;;;;;8.85;6.82;;;18.20;99.90;19.80;94172.00;;;;7384479;19;20144;-76
2023/06/02 08:40:12;;;;;;;11.90;7.22;;;18.30;1.00;20.30;94170.00;;;;7380757;19;20173;-76
2023/06/02 08:42:46;;;;;;;10.98;7.32;;;18.40;1.00;20.80;94178.00;;;;7380719;19;20148;-78
2023/06/02 08:45:22;;;;;;;11.68;6.18;;;18.60;1.00;20.70;94169.00;;;;7381833;19;20140;-77
2023/06/02 08:47:56;;;;;;;8.23;7.18;;;18.80;1.00;20.20;94159.00;;;;7384776;19;20129;-78
2023/06/02 08:50:35;;;;;;;10.38;7.22;;;18.90;1.00;20.90;94151.00;;;;7385041;19;20125;-76
2023/06/02 08:53:14;;;;;;;9.02;7.00;;;19.20;1.00;21.10;94176.00;;;;7383467;19;20144;-77
2023/06/02 08:55:49;;;;;;;10.00;6.70;;;19.30;1.00;21.40;94132.00;;;;7381053;19;20124;-77
2023/06/02 08:58:16;;;;;;;10.55;6.85;;;19.30;1.00;21.60;94165.00;;;;7384335;19;20636;-77
2023/06/02 09:00:50;;;;;;;9.57;7.20;;;19.10;1.00;21.80;94173.00;;;;7383205;19;20165;-77
2023/06/02 09:03:18;;;;;;;9.27;7.30;;;19.40;1.00;22.30;94173.00;;;;7383627;19;20273;-79
2023/06/02 09:06:23;;;;;;;12.45;7.13;;;19.60;1.00;22.90;94165.00;;;;7384662;19;20145;-76
2023/06/02 09:09:00;;;;;;;11.52;7.30;;;19.70;1.00;22.30;94176.00;;;;7383127;19;20173;-78
2023/06/02 09:11:31;;;;;;;9.48;7.95;;;19.90;1.00;22.60;94165.00;;;;7383035;19;20580;-77
2023/06/02 09:14:19;;;;;;;8.95;7.65;;;19.90;1.00;22.10;94156.00;;;;7384034;19;20147;-78
2023/06/02 09:16:46;;;;;;;10.07;7.57;;;20.00;1.00;21.50;94183.00;;;;7384046;19;20218;-78
2023/06/02 09:19:20;;;;;;;8.27;7.13;;;20.10;1.00;21.60;94152.00;;;;7380223;19;20156;-80
2023/06/02 09:22:07;;;;;;;10.38;7.07;;;20.10;1.00;21.90;94152.00;;;;7386046;19;20236;-79
2023/06/02 09:24:35;;;;;;;10.60;7.88;;;19.90;1.00;21.70;94179.00;;;;7385975;19;20145;-80
2023/06/02 09:27:16;;;;;;;11.75;7.70;;;20.10;1.00;22.10;94181.00;;;;7383334;19;20153;-77
2023/06/02 09:30:02;;;;;;;8.63;7.00;;;20.20;1.00;22.50;94143.00;;;;7378952;19;20145;-78
2023/06/02 09:32:37;;;;;;;9.82;7.30;;;20.20;1.00;22.30;94154.00;;;;7382078;19;20161;-77
2023/06/02 09:35:44;;;;;;;12.23;7.85;;;20.40;1.00;23.00;94165.00;;;;7380206;19;20148;-77
2023/06/02 09:38:20;;;;;;;9.20;7.22;;;20.70;1.00;22.90;94180.00;;;;7383282;19;20121;-79
2023/06/02 09:40:47;;;;;;;11.15;8.10;;;20.90;1.00;22.30;94190.00;;;;7381236;19;20152;-79
2023/06/02 09:43:30;;;;;;;9.57;7.45;;;21.20;1.00;22.30;94166.00;;;;7381784;19;20142;-77
2023/06/02 09:46:03;;;;;;;9.18;7.10;;;21.30;1.00;22.80;94173.00;;;;7381377;19;20137;-79
2023/06/02 09:48:39;;;;;;;10.10;7.35;;;21.20;1.00;22.40;94163.00;;;;7380508;19;20121;-76
2023/06/02 09:51:26;;;;;;;8.93;7.70;;;21.00;1.00;23.20;94183.00;;;;7383556;19;20482;-78
2023/06/02 09:54:01;;;;;;;8.25;6.97;;;21.10;1.00;23.30;94163.00;;;;7381637;19;20151;-76
2023/06/02 09:56:37;;;;;;;7.55;6.40;;;21.40;1.00;23.90;94179.00;;;;7376982;19;20147;-78
2023/06/02 09:59:10;;;;;;;13.00;7.35;;;21.80;1.00;24.50;94147.00;;;;7380911;19;20134;-79
2023/06/02 10:01:38;;;;;;;10.48;6.68;;;22.00;1.00;24.10;94177.00;;;;7378905;19;20168;-78
2023/06/02 10:04:06;;;;;;;8.77;6.93;;;22.10;1.00;23.10;94171.00;;;;7380134;19;20137;-80
2023/06/02 10:07:14;;;;;;;7.53;6.82;;;22.30;1.00;22.60;94144.00;;;;7383947;19;20120;-78
2023/06/02 10:10:28;;;;;;;8.48;6.75;;;22.60;1.00;22.70;94182.00;;;;7385840;19;20152;-79
2023/06/02 10:13:47;;;;;;;7.13;6.43;;;22.60;1.00;23.40;94176.00;;;;7381512;19;20169;-80
2023/06/02 10:16:55;;;;;;;11.80;6.68;;;22.60;1.00;24.10;94181.00;;;;7376741;19;20168;-77
2023/06/02 10:19:43;;;;;;;7.97;6.78;;;23.00;1.00;24.80;94153.00;;;;7378469;19;20128;-77
2023/06/02 10:22:52;;;;;;;7.47;6.55;;;23.10;1.00;24.30;94171.00;;;;7378938;19;20636;-76
2023/06/02 10:25:39;;;;;;;7.43;6.03;;;23.20;1.40;23.90;94141.00;;;;7377720;19;20152;-77
2023/06/02 10:28:21;;;;;;;10.10;6.90;;;23.50;99.90;24.30;94164.00;;;;7374738;19;20180;-78
2023/06/02 10:31:11;;;;;;;7.47;5.55;;;23.40;99.90;23.80;94188.00;;;;7377866;19;20223;-77
2023/06/02 10:33:48;;;;;;;9.45;6.57;;;23.70;99.90;24.90;94168.00;;;;7377529;19;20847;-77
2023/06/02 10:36:22;;;;;;;7.68;6.47;;;23.90;99.90;25.20;94171.00;;;;7381495;19;20135;-78
2023/06/02 10:38:50;;;;;;;9.57;6.32;;;23.80;99.90;25.10;94173.00;;;;7382036;19;20133;-78
2023/06/02 10:42:10;;;;;;;8.75;6.35;;;24.10;99.90;25.40;94168.00;;;;7381485;19;20212;-78
2023/06/02 10:44:37;;;;;;;7.00;6.30;;;24.20;99.90;26.10;94166.00;;;;7380751;19;20544;-77
2023/06/02 10:47:18;;;;;;;8.00;6.22;;;24.40;99.90;24.60;94165.00;;;;7379088;19;20148;-81
2023/06/02 10:50:02;;;;;;;8.35;6.40;;;24.20;99.90;25.30;94160.00;;;;7376575;19;20145;-78
2023/06/02 10:52:58;;;;;;;7.88;6.15;;;24.20;99.90;24.70;94159.00;;;;7378764;19;20204;-78
2023/06/02 10:55:34;;;;;;;7.93;6.38;;;24.30;99.90;25.20;94165.00;;;;7381521;19;20150;-78
2023/06/02 10:58:12;;;;;;;8.35;6.15;;;24.30;99.90;24.40;94165.00;;;;7384939;19;20566;-78
2023/06/02 11:00:45;;;;;;;8.00;5.88;;;24.40;99.90;24.70;94135.00;;;;7380584;19;20239;-81
2023/06/02 11:03:22;;;;;;;7.85;5.93;;;24.60;99.90;24.50;94161.00;;;;7379968;19;20216;-77
2023/06/02 11:06:18;;;;;;;6.65;5.95;;;24.50;99.90;24.40;94154.00;;;;7382408;19;20144;-78
2023/06/02 11:08:52;;;;;;;6.30;5.70;;;24.30;99.90;23.60;94147.00;;;;7374437;19;20148;-77
2023/06/02 11:11:51;;;;;;;9.63;6.15;;;24.10;99.90;24.60;94157.00;;;;7379286;19;20221;-77
2023/06/02 11:14:27;;;;;;;8.13;5.90;;;23.90;99.90;25.00;94170.00;;;;7378161;19;20616;-76
2023/06/02 11:17:35;;;;;;;6.47;5.88;;;23.90;99.90;24.90;94148.00;;;;7378572;19;20177;-76
2023/06/02 11:20:10;;;;;;;10.15;6.05;;;23.90;99.90;25.30;94170.00;;;;7384470;19;20415;-79
2023/06/02 11:22:38;;;;;;;6.70;5.60;;;23.60;99.90;24.50;94137.00;;;;7383429;19;20129;-77
2023/06/02 11:25:18;;;;;;;7.13;5.72;;;23.80;99.90;24.90;94168.00;;;;7390638;19;20140;-78
2023/06/02 11:27:52;;;;;;;6.70;5.63;;;24.00;99.90;23.10;94173.00;;;;7389786;19;20218;-78
2023/06/02 11:30:32;;;;;;;6.07;5.47;;;24.10;99.90;24.80;94160.00;;;;7392187;19;20469;-77
2023/06/02 11:33:00;;;;;;;7.82;5.60;;;24.20;99.90;25.20;94164.00;;;;7380485;19;20530;-76
2023/06/02 11:35:35;;;;;;;5.32;4.82;;;24.10;99.90;25.90;94160.00;;;;7376143;19;20571;-77